sensor_id;sensor_type;location;lat;lon;timestamp;pressure;altitude;pressure_sealevel;temperature;humidity
69402;BME280;56589;51.992;5.924;2024-03-25T00:01:42;100149.47;;;3.57;89.91
69402;BME280;56589;51.992;5.924;2024-03-25T00:04:07;100163.38;;;3.56;89.89
69402;BME280;56589;51.992;5.924;2024-03-25T00:06:33;100162.59;;;3.54;90.16
69402;BME280;56589;51.992;5.924;2024-03-25T00:09:02;100151.50;;;3.51;90.27
69402;BME280;56589;51.992;5.924;2024-03-25T00:11:29;100158.44;;;3.50;90.15
69402;BME280;56589;51.992;5.924;2024-03-25T00:13:54;100155.97;;;3.47;90.48
69402;BME280;56589;51.992;5.924;2024-03-25T00:16:20;100147.34;;;3.47;90.28
69402;BME280;56589;51.992;5.924;2024-03-25T00:18:46;100150.78;;;3.47;90.46
69402;BME280;56589;51.992;5.924;2024-03-25T00:21:12;100150.88;;;3.46;90.42
69402;BME280;56589;51.992;5.924;2024-03-25T00:23:38;100149.19;;;3.45;90.54
69402;BME280;56589;51.992;5.924;2024-03-25T00:26:06;100145.81;;;3.43;90.52
69402;BME280;56589;51.992;5.924;2024-03-25T00:28:32;100147.50;;;3.44;90.53
69402;BME280;56589;51.992;5.924;2024-03-25T00:30:58;100153.72;;;3.40;90.68
69402;BME280;56589;51.992;5.924;2024-03-25T00:33:25;100151.22;;;3.38;90.42
69402;BME280;56589;51.992;5.924;2024-03-25T00:35:51;100152.06;;;3.39;90.67
69402;BME280;56589;51.992;5.924;2024-03-25T00:38:17;100146.88;;;3.39;90.74
69402;BME280;56589;51.992;5.924;2024-03-25T00:40:43;100135.56;;;3.40;90.48
69402;BME280;56589;51.992;5.924;2024-03-25T00:43:11;100137.22;;;3.42;90.98
69402;BME280;56589;51.992;5.924;2024-03-25T00:45:37;100144.13;;;3.42;90.80
69402;BME280;56589;51.992;5.924;2024-03-25T00:48:04;100137.97;;;3.44;90.86
69402;BME280;56589;51.992;5.924;2024-03-25T00:50:30;100138.72;;;3.46;91.05
69402;BME280;56589;51.992;5.924;2024-03-25T00:52:56;100143.00;;;3.47;91.01
69402;BME280;56589;51.992;5.924;2024-03-25T00:55:22;100142.97;;;3.49;90.99
69402;BME280;56589;51.992;5.924;2024-03-25T00:57:48;100139.38;;;3.51;90.80
69402;BME280;56589;51.992;5.924;2024-03-25T01:00:17;100133.34;;;3.51;90.81
69402;BME280;56589;51.992;5.924;2024-03-25T01:02:43;100132.56;;;3.49;90.79
69402;BME280;56589;51.992;5.924;2024-03-25T01:05:09;100133.53;;;3.46;90.51
69402;BME280;56589;51.992;5.924;2024-03-25T01:07:35;100132.00;;;3.42;90.40
69402;BME280;56589;51.992;5.924;2024-03-25T01:10:01;100134.81;;;3.38;90.43
69402;BME280;56589;51.992;5.924;2024-03-25T01:12:29;100135.84;;;3.34;90.52
69402;BME280;56589;51.992;5.924;2024-03-25T01:14:57;100141.19;;;3.30;90.38
69402;BME280;56589;51.992;5.924;2024-03-25T01:17:25;100138.72;;;3.27;90.58
69402;BME280;56589;51.992;5.924;2024-03-25T01:19:55;100145.72;;;3.25;90.34
69402;BME280;56589;51.992;5.924;2024-03-25T01:22:21;100139.81;;;3.22;90.42
69402;BME280;56589;51.992;5.924;2024-03-25T01:24:46;100138.22;;;3.19;90.65
69402;BME280;56589;51.992;5.924;2024-03-25T01:27:12;100144.31;;;3.18;90.55
69402;BME280;56589;51.992;5.924;2024-03-25T01:29:38;100147.03;;;3.15;90.75
69402;BME280;56589;51.992;5.924;2024-03-25T01:32:04;100150.66;;;3.11;90.70
69402;BME280;56589;51.992;5.924;2024-03-25T01:34:33;100148.13;;;3.10;90.88
69402;BME280;56589;51.992;5.924;2024-03-25T01:36:59;100156.91;;;3.07;90.74
69402;BME280;56589;51.992;5.924;2024-03-25T01:39:25;100148.41;;;3.03;90.41
69402;BME280;56589;51.992;5.924;2024-03-25T01:41:51;100150.22;;;3.01;90.59
69402;BME280;56589;51.992;5.924;2024-03-25T01:44:16;100153.75;;;3.00;90.64
69402;BME280;56589;51.992;5.924;2024-03-25T01:46:44;100156.44;;;2.97;90.59
69402;BME280;56589;51.992;5.924;2024-03-25T01:49:11;100155.59;;;2.97;90.81
69402;BME280;56589;51.992;5.924;2024-03-25T01:51:40;100148.75;;;2.96;90.89
69402;BME280;56589;51.992;5.924;2024-03-25T01:54:08;100152.31;;;2.93;90.92
69402;BME280;56589;51.992;5.924;2024-03-25T01:56:35;100153.28;;;2.91;90.76
69402;BME280;56589;51.992;5.924;2024-03-25T01:59:03;100155.03;;;2.90;90.82
69402;BME280;56589;51.992;5.924;2024-03-25T02:01:29;100165.47;;;2.89;90.84
69402;BME280;56589;51.992;5.924;2024-03-25T02:03:56;100154.44;;;2.84;91.00
69402;BME280;56589;51.992;5.924;2024-03-25T02:06:24;100157.13;;;2.82;90.81
69402;BME280;56589;51.992;5.924;2024-03-25T02:08:56;100154.53;;;2.82;90.94
69402;BME280;56589;51.992;5.924;2024-03-25T02:11:24;100153.72;;;2.80;91.06
69402;BME280;56589;51.992;5.924;2024-03-25T02:13:51;100158.06;;;2.80;91.26
69402;BME280;56589;51.992;5.924;2024-03-25T02:16:17;100161.66;;;2.77;90.84
69402;BME280;56589;51.992;5.924;2024-03-25T02:18:43;100159.97;;;2.76;90.73
69402;BME280;56589;51.992;5.924;2024-03-25T02:21:09;100171.25;;;2.75;91.07
69402;BME280;56589;51.992;5.924;2024-03-25T02:23:37;100159.16;;;2.74;90.98
69402;BME280;56589;51.992;5.924;2024-03-25T02:26:07;100159.22;;;2.72;91.21
69402;BME280;56589;51.992;5.924;2024-03-25T02:28:33;100148.09;;;2.70;90.91
69402;BME280;56589;51.992;5.924;2024-03-25T02:30:58;100152.44;;;2.70;91.30
69402;BME280;56589;51.992;5.924;2024-03-25T02:33:24;100151.59;;;2.69;91.53
69402;BME280;56589;51.992;5.924;2024-03-25T02:35:50;100149.84;;;2.70;91.35
69402;BME280;56589;51.992;5.924;2024-03-25T02:38:16;100153.41;;;2.67;91.60
69402;BME280;56589;51.992;5.924;2024-03-25T02:40:42;100151.63;;;2.68;91.38
69402;BME280;56589;51.992;5.924;2024-03-25T02:43:11;100154.22;;;2.68;91.40
69402;BME280;56589;51.992;5.924;2024-03-25T02:45:37;100156.78;;;2.69;91.65
69402;BME280;56589;51.992;5.924;2024-03-25T02:48:04;100154.06;;;2.72;91.69
69402;BME280;56589;51.992;5.924;2024-03-25T02:50:30;100165.06;;;2.77;91.72
69402;BME280;56589;51.992;5.924;2024-03-25T02:52:56;100161.38;;;2.83;92.37
69402;BME280;56589;51.992;5.924;2024-03-25T02:55:21;100161.91;;;2.91;92.23
69402;BME280;56589;51.992;5.924;2024-03-25T02:57:47;100163.31;;;2.98;92.40
69402;BME280;56589;51.992;5.924;2024-03-25T03:00:16;100166.44;;;3.07;92.59
69402;BME280;56589;51.992;5.924;2024-03-25T03:02:42;100156.63;;;3.13;92.44
69402;BME280;56589;51.992;5.924;2024-03-25T03:05:08;100155.53;;;3.19;92.43
69402;BME280;56589;51.992;5.924;2024-03-25T03:07:36;100152.72;;;3.23;92.72
69402;BME280;56589;51.992;5.924;2024-03-25T03:10:02;100158.50;;;3.30;92.81
69402;BME280;56589;51.992;5.924;2024-03-25T03:12:28;100151.50;;;3.32;92.61
69402;BME280;56589;51.992;5.924;2024-03-25T03:14:54;100156.47;;;3.37;92.67
69402;BME280;56589;51.992;5.924;2024-03-25T03:17:22;100160.75;;;3.38;92.39
69402;BME280;56589;51.992;5.924;2024-03-25T03:19:48;100164.03;;;3.41;92.22
69402;BME280;56589;51.992;5.924;2024-03-25T03:22:14;100157.09;;;3.42;92.41
69402;BME280;56589;51.992;5.924;2024-03-25T03:24:39;100156.22;;;3.43;92.15
69402;BME280;56589;51.992;5.924;2024-03-25T03:27:05;100156.13;;;3.44;92.29
69402;BME280;56589;51.992;5.924;2024-03-25T03:29:31;100155.28;;;3.44;92.16
69402;BME280;56589;51.992;5.924;2024-03-25T03:31:57;100154.44;;;3.43;92.22
69402;BME280;56589;51.992;5.924;2024-03-25T03:34:25;100152.69;;;3.44;92.20
69402;BME280;56589;51.992;5.924;2024-03-25T03:36:51;100151.06;;;3.41;92.15
69402;BME280;56589;51.992;5.924;2024-03-25T03:39:17;100152.06;;;3.39;92.10
69402;BME280;56589;51.992;5.924;2024-03-25T03:41:43;100153.94;;;3.35;91.91
69402;BME280;56589;51.992;5.924;2024-03-25T03:44:09;100161.72;;;3.35;91.90
69402;BME280;56589;51.992;5.924;2024-03-25T03:46:34;100163.47;;;3.35;91.73
69402;BME280;56589;51.992;5.924;2024-03-25T03:49:02;100161.03;;;3.31;91.66
69402;BME280;56589;51.992;5.924;2024-03-25T03:51:30;100159.34;;;3.30;91.55
69402;BME280;56589;51.992;5.924;2024-03-25T03:53:56;100159.47;;;3.27;91.68
69402;BME280;56589;51.992;5.924;2024-03-25T03:56:22;100159.66;;;3.23;91.30
69402;BME280;56589;51.992;5.924;2024-03-25T03:58:48;100152.97;;;3.17;91.31
69402;BME280;56589;51.992;5.924;2024-03-25T04:01:15;100148.03;;;3.13;91.21
69402;BME280;56589;51.992;5.924;2024-03-25T04:03:41;100146.53;;;3.07;91.13
69402;BME280;56589;51.992;5.924;2024-03-25T04:06:10;100144.22;;;3.01;91.03
69402;BME280;56589;51.992;5.924;2024-03-25T04:08:40;100147.06;;;2.95;90.71
69402;BME280;56589;51.992;5.924;2024-03-25T04:11:07;100143.81;;;2.90;90.83
69402;BME280;56589;51.992;5.924;2024-03-25T04:13:33;100140.56;;;2.85;90.69
69402;BME280;56589;51.992;5.924;2024-03-25T04:16:01;100142.50;;;2.80;91.02
69402;BME280;56589;51.992;5.924;2024-03-25T04:18:27;100148.78;;;2.74;90.87
69402;BME280;56589;51.992;5.924;2024-03-25T04:20:53;100147.25;;;2.70;91.05
69402;BME280;56589;51.992;5.924;2024-03-25T04:23:19;100136.25;;;2.65;91.20
69402;BME280;56589;51.992;5.924;2024-03-25T04:25:47;100142.44;;;2.61;90.95
69402;BME280;56589;51.992;5.924;2024-03-25T04:28:13;100144.38;;;2.56;90.92
69402;BME280;56589;51.992;5.924;2024-03-25T04:30:39;100142.91;;;2.50;90.94
69402;BME280;56589;51.992;5.924;2024-03-25T04:33:05;100148.28;;;2.45;91.23
69402;BME280;56589;51.992;5.924;2024-03-25T04:35:31;100150.06;;;2.43;91.25
69402;BME280;56589;51.992;5.924;2024-03-25T04:37:56;100148.44;;;2.41;91.31
69402;BME280;56589;51.992;5.924;2024-03-25T04:40:22;100145.09;;;2.39;91.12
69402;BME280;56589;51.992;5.924;2024-03-25T04:42:51;100137.50;;;2.34;91.17
69402;BME280;56589;51.992;5.924;2024-03-25T04:45:17;100143.59;;;2.33;91.47
69402;BME280;56589;51.992;5.924;2024-03-25T04:47:42;100139.34;;;2.31;91.27
69402;BME280;56589;51.992;5.924;2024-03-25T04:50:09;100143.75;;;2.29;91.48
69402;BME280;56589;51.992;5.924;2024-03-25T04:52:35;100148.94;;;2.29;91.88
69402;BME280;56589;51.992;5.924;2024-03-25T04:55:01;100153.34;;;2.27;92.04
69402;BME280;56589;51.992;5.924;2024-03-25T04:57:27;100145.59;;;2.27;91.67
69402;BME280;56589;51.992;5.924;2024-03-25T04:59:55;100151.69;;;2.26;91.50
69402;BME280;56589;51.992;5.924;2024-03-25T05:02:21;100149.13;;;2.24;91.56
69402;BME280;56589;51.992;5.924;2024-03-25T05:04:47;100150.88;;;2.23;91.59
69402;BME280;56589;51.992;5.924;2024-03-25T05:07:12;100156.97;;;2.22;91.32
69402;BME280;56589;51.992;5.924;2024-03-25T05:09:38;100151.03;;;2.19;91.79
69402;BME280;56589;51.992;5.924;2024-03-25T05:12:04;100155.38;;;2.18;91.88
69402;BME280;56589;51.992;5.924;2024-03-25T05:14:30;100151.13;;;2.17;91.98
69402;BME280;56589;51.992;5.924;2024-03-25T05:16:59;100154.63;;;2.16;91.91
69402;BME280;56589;51.992;5.924;2024-03-25T05:19:25;100150.34;;;2.15;92.01
69402;BME280;56589;51.992;5.924;2024-03-25T05:21:51;100160.69;;;2.15;91.74
69402;BME280;56589;51.992;5.924;2024-03-25T05:24:17;100157.28;;;2.15;92.01
69402;BME280;56589;51.992;5.924;2024-03-25T05:26:42;100163.22;;;2.17;92.12
69402;BME280;56589;51.992;5.924;2024-03-25T05:29:10;100162.38;;;2.16;92.32
69402;BME280;56589;51.992;5.924;2024-03-25T05:31:35;100177.00;;;2.17;92.37
69402;BME280;56589;51.992;5.924;2024-03-25T05:34:04;100179.59;;;2.17;92.39
69402;BME280;56589;51.992;5.924;2024-03-25T05:36:30;100184.78;;;2.17;92.08
69402;BME280;56589;51.992;5.924;2024-03-25T05:38:56;100181.34;;;2.17;92.45
69402;BME280;56589;51.992;5.924;2024-03-25T05:41:22;100183.03;;;2.18;92.00
69402;BME280;56589;51.992;5.924;2024-03-25T05:43:49;100184.72;;;2.19;92.09
69402;BME280;56589;51.992;5.924;2024-03-25T05:46:15;100194.91;;;2.23;92.30
69402;BME280;56589;51.992;5.924;2024-03-25T05:48:41;100189.66;;;2.25;92.67
69402;BME280;56589;51.992;5.924;2024-03-25T05:51:09;100194.66;;;2.30;92.33
69402;BME280;56589;51.992;5.924;2024-03-25T05:53:35;100189.25;;;2.36;92.47
69402;BME280;56589;51.992;5.924;2024-03-25T05:56:02;100194.06;;;2.45;92.92
69402;BME280;56589;51.992;5.924;2024-03-25T05:58:28;100186.47;;;2.62;93.51
69402;BME280;56589;51.992;5.924;2024-03-25T06:00:56;100188.16;;;2.84;93.66
69402;BME280;56589;51.992;5.924;2024-03-25T06:03:22;100184.72;;;3.03;93.70
69402;BME280;56589;51.992;5.924;2024-03-25T06:05:48;100180.97;;;3.29;94.15
69402;BME280;56589;51.992;5.924;2024-03-25T06:08:17;100183.69;;;3.66;94.43
69402;BME280;56589;51.992;5.924;2024-03-25T06:10:42;100178.38;;;4.06;95.26
69402;BME280;56589;51.992;5.924;2024-03-25T06:13:08;100181.34;;;4.52;95.27
69402;BME280;56589;51.992;5.924;2024-03-25T06:15:34;100176.44;;;5.00;95.40
69402;BME280;56589;51.992;5.924;2024-03-25T06:18:00;100179.88;;;5.51;95.04
69402;BME280;56589;51.992;5.924;2024-03-25T06:20:26;100174.88;;;5.95;94.87
69402;BME280;56589;51.992;5.924;2024-03-25T06:22:52;100182.59;;;6.44;94.19
69402;BME280;56589;51.992;5.924;2024-03-25T06:25:20;100171.84;;;6.94;93.61
69402;BME280;56589;51.992;5.924;2024-03-25T06:27:46;100168.59;;;7.33;92.19
69402;BME280;56589;51.992;5.924;2024-03-25T06:30:12;100170.78;;;7.70;92.28
69402;BME280;56589;51.992;5.924;2024-03-25T06:32:38;100174.66;;;8.05;90.63
69402;BME280;56589;51.992;5.924;2024-03-25T06:35:04;100180.28;;;8.26;88.59
69402;BME280;56589;51.992;5.924;2024-03-25T06:37:30;100178.25;;;8.17;86.53
69402;BME280;56589;51.992;5.924;2024-03-25T06:39:55;100184.09;;;7.94;85.72
69402;BME280;56589;51.992;5.924;2024-03-25T06:42:24;100178.91;;;7.65;85.09
69402;BME280;56589;51.992;5.924;2024-03-25T06:44:50;100180.50;;;7.39;84.90
69402;BME280;56589;51.992;5.924;2024-03-25T06:47:16;100171.38;;;7.16;85.23
69402;BME280;56589;51.992;5.924;2024-03-25T06:49:42;100178.56;;;6.98;84.85
69402;BME280;56589;51.992;5.924;2024-03-25T06:52:07;100182.06;;;6.83;85.54
69402;BME280;56589;51.992;5.924;2024-03-25T06:54:33;100175.63;;;6.74;85.50
69402;BME280;56589;51.992;5.924;2024-03-25T06:57:01;100177.91;;;6.65;85.42
69402;BME280;56589;51.992;5.924;2024-03-25T06:59:29;100179.00;;;6.61;85.86
69402;BME280;56589;51.992;5.924;2024-03-25T07:01:55;100180.22;;;6.55;85.71
69402;BME280;56589;51.992;5.924;2024-03-25T07:04:23;100183.91;;;6.51;85.95
69402;BME280;56589;51.992;5.924;2024-03-25T07:06:49;100185.69;;;6.50;86.17
69402;BME280;56589;51.992;5.924;2024-03-25T07:09:16;100184.00;;;6.49;85.92
69402;BME280;56589;51.992;5.924;2024-03-25T07:11:42;100183.09;;;6.50;85.87
69402;BME280;56589;51.992;5.924;2024-03-25T07:14:08;100185.59;;;6.52;85.94
69402;BME280;56589;51.992;5.924;2024-03-25T07:16:36;100187.13;;;6.56;85.86
69402;BME280;56589;51.992;5.924;2024-03-25T07:19:02;100186.09;;;6.59;85.98
69402;BME280;56589;51.992;5.924;2024-03-25T07:21:28;100191.13;;;6.62;85.70
69402;BME280;56589;51.992;5.924;2024-03-25T07:23:53;100190.09;;;6.64;85.83
69402;BME280;56589;51.992;5.924;2024-03-25T07:26:19;100191.69;;;6.67;85.80
69402;BME280;56589;51.992;5.924;2024-03-25T07:28:45;100186.47;;;6.67;85.80
69402;BME280;56589;51.992;5.924;2024-03-25T07:31:11;100191.63;;;6.68;85.47
69402;BME280;56589;51.992;5.924;2024-03-25T07:33:39;100184.53;;;6.70;85.63
69402;BME280;56589;51.992;5.924;2024-03-25T07:36:05;100191.44;;;6.71;85.40
69402;BME280;56589;51.992;5.924;2024-03-25T07:38:31;100193.94;;;6.73;85.36
69402;BME280;56589;51.992;5.924;2024-03-25T07:41:03;100188.66;;;6.74;85.33
69402;BME280;56589;51.992;5.924;2024-03-25T07:43:29;100180.84;;;6.74;85.33
69402;BME280;56589;51.992;5.924;2024-03-25T07:45:55;100188.56;;;6.76;85.03
69402;BME280;56589;51.992;5.924;2024-03-25T07:48:21;100183.09;;;6.80;85.43
69402;BME280;56589;51.992;5.924;2024-03-25T07:50:49;100177.78;;;6.82;85.54
69402;BME280;56589;51.992;5.924;2024-03-25T07:53:15;100181.13;;;6.84;85.38
69402;BME280;56589;51.992;5.924;2024-03-25T07:55:41;100181.03;;;6.86;85.24
69402;BME280;56589;51.992;5.924;2024-03-25T07:58:07;100176.59;;;6.88;84.80
69402;BME280;56589;51.992;5.924;2024-03-25T08:00:32;100179.94;;;6.90;84.85
69402;BME280;56589;51.992;5.924;2024-03-25T08:02:58;100173.72;;;6.92;84.76
69402;BME280;56589;51.992;5.924;2024-03-25T08:05:26;100181.53;;;6.92;84.43
69402;BME280;56589;51.992;5.924;2024-03-25T08:07:57;100186.56;;;6.95;85.06
69402;BME280;56589;51.992;5.924;2024-03-25T08:10:23;100188.91;;;7.00;84.85
69402;BME280;56589;51.992;5.924;2024-03-25T08:12:49;100187.72;;;7.05;84.88
69402;BME280;56589;51.992;5.924;2024-03-25T08:15:15;100190.13;;;7.08;84.47
69402;BME280;56589;51.992;5.924;2024-03-25T08:17:41;100192.56;;;7.12;84.23
69402;BME280;56589;51.992;5.924;2024-03-25T08:20:08;100190.81;;;7.12;84.72
69402;BME280;56589;51.992;5.924;2024-03-25T08:22:36;100200.22;;;7.15;84.15
69402;BME280;56589;51.992;5.924;2024-03-25T08:25:05;100193.03;;;7.18;84.36
69402;BME280;56589;51.992;5.924;2024-03-25T08:27:31;100198.06;;;7.21;83.96
69402;BME280;56589;51.992;5.924;2024-03-25T08:29:56;100194.34;;;7.25;84.35
69402;BME280;56589;51.992;5.924;2024-03-25T08:32:22;100186.25;;;7.30;84.51
69402;BME280;56589;51.992;5.924;2024-03-25T08:34:48;100191.19;;;7.34;83.71
69402;BME280;56589;51.992;5.924;2024-03-25T08:37:14;100190.19;;;7.37;83.92
69402;BME280;56589;51.992;5.924;2024-03-25T08:39:39;100189.16;;;7.40;83.00
69402;BME280;56589;51.992;5.924;2024-03-25T08:42:08;100196.94;;;7.41;83.79
69402;BME280;56589;51.992;5.924;2024-03-25T08:44:34;100195.78;;;7.45;83.45
69402;BME280;56589;51.992;5.924;2024-03-25T08:46:59;100194.69;;;7.49;83.55
69402;BME280;56589;51.992;5.924;2024-03-25T08:49:25;100196.19;;;7.53;83.21
69402;BME280;56589;51.992;5.924;2024-03-25T08:51:51;100188.88;;;7.58;83.33
69402;BME280;56589;51.992;5.924;2024-03-25T08:54:17;100193.72;;;7.65;82.87
69402;BME280;56589;51.992;5.924;2024-03-25T08:56:42;100193.47;;;7.69;82.59
69402;BME280;56589;51.992;5.924;2024-03-25T08:59:11;100186.28;;;7.73;82.57
69402;BME280;56589;51.992;5.924;2024-03-25T09:01:36;100190.38;;;7.77;82.61
69402;BME280;56589;51.992;5.924;2024-03-25T09:04:05;100185.06;;;7.78;81.29
69402;BME280;56589;51.992;5.924;2024-03-25T09:06:31;100173.78;;;7.78;80.74
69402;BME280;56589;51.992;5.924;2024-03-25T09:08:56;100181.41;;;7.81;81.19
69402;BME280;56589;51.992;5.924;2024-03-25T09:11:22;100176.84;;;7.84;81.42
69402;BME280;56589;51.992;5.924;2024-03-25T09:13:50;100178.88;;;7.94;81.76
69402;BME280;56589;51.992;5.924;2024-03-25T09:16:18;100181.84;;;8.02;80.87
69402;BME280;56589;51.992;5.924;2024-03-25T09:18:44;100178.53;;;8.12;80.95
69402;BME280;56589;51.992;5.924;2024-03-25T09:21:11;100183.00;;;8.25;80.47
69402;BME280;56589;51.992;5.924;2024-03-25T09:23:36;100171.13;;;8.33;80.16
69402;BME280;56589;51.992;5.924;2024-03-25T09:26:03;100181.09;;;8.41;80.06
69402;BME280;56589;51.992;5.924;2024-03-25T09:28:29;100177.22;;;8.47;79.97
69402;BME280;56589;51.992;5.924;2024-03-25T09:30:54;100176.00;;;8.52;79.61
69402;BME280;56589;51.992;5.924;2024-03-25T09:33:25;100173.88;;;8.57;79.90
69402;BME280;56589;51.992;5.924;2024-03-25T09:35:51;100172.16;;;8.71;79.45
69402;BME280;56589;51.992;5.924;2024-03-25T09:38:16;100166.97;;;8.83;78.89
69402;BME280;56589;51.992;5.924;2024-03-25T09:40:44;100169.19;;;9.02;78.88
69402;BME280;56589;51.992;5.924;2024-03-25T09:43:13;100168.66;;;9.22;78.47
69402;BME280;56589;51.992;5.924;2024-03-25T09:45:47;100169.09;;;9.42;77.85
69402;BME280;56589;51.992;5.924;2024-03-25T09:48:15;100172.22;;;9.60;77.72
69402;BME280;56589;51.992;5.924;2024-03-25T09:50:45;100172.94;;;9.74;77.01
69402;BME280;56589;51.992;5.924;2024-03-25T09:53:12;100168.91;;;9.94;77.04
69402;BME280;56589;51.992;5.924;2024-03-25T09:55:38;100169.28;;;10.14;76.81
69402;BME280;56589;51.992;5.924;2024-03-25T09:58:05;100158.91;;;10.36;75.67
69402;BME280;56589;51.992;5.924;2024-03-25T10:00:31;100164.59;;;10.54;75.73
69402;BME280;56589;51.992;5.924;2024-03-25T10:02:57;100168.69;;;10.69;74.88
69402;BME280;56589;51.992;5.924;2024-03-25T10:05:22;100163.81;;;10.76;74.19
69402;BME280;56589;51.992;5.924;2024-03-25T10:07:51;100158.69;;;10.74;73.17
69402;BME280;56589;51.992;5.924;2024-03-25T10:10:20;100162.47;;;10.70;72.99
69402;BME280;56589;51.992;5.924;2024-03-25T10:12:48;100158.44;;;10.66;72.86
69402;BME280;56589;51.992;5.924;2024-03-25T10:15:17;100154.59;;;10.70;72.90
69402;BME280;56589;51.992;5.924;2024-03-25T10:17:45;100151.94;;;10.83;73.09
69402;BME280;56589;51.992;5.924;2024-03-25T10:20:14;100144.31;;;10.91;72.86
69402;BME280;56589;51.992;5.924;2024-03-25T10:22:41;100151.34;;;10.91;72.38
69402;BME280;56589;51.992;5.924;2024-03-25T10:25:19;100141.56;;;10.93;72.38
69402;BME280;56589;51.992;5.924;2024-03-25T10:27:53;100132.50;;;10.97;71.66
69402;BME280;56589;51.992;5.924;2024-03-25T10:30:19;100124.13;;;11.03;70.76
69402;BME280;56589;51.992;5.924;2024-03-25T10:32:46;100126.19;;;11.10;70.48
69402;BME280;56589;51.992;5.924;2024-03-25T10:35:26;100127.03;;;11.11;69.60
69402;BME280;56589;51.992;5.924;2024-03-25T10:37:55;100122.84;;;11.08;70.09
69402;BME280;56589;51.992;5.924;2024-03-25T10:40:27;100122.28;;;11.16;68.76
69402;BME280;56589;51.992;5.924;2024-03-25T10:43:00;100117.38;;;11.23;68.60
69402;BME280;56589;51.992;5.924;2024-03-25T10:45:28;100121.06;;;11.31;67.93
69402;BME280;56589;51.992;5.924;2024-03-25T10:47:57;100112.59;;;11.39;69.54
69402;BME280;56589;51.992;5.924;2024-03-25T10:50:28;100111.63;;;11.51;69.02
69402;BME280;56589;51.992;5.924;2024-03-25T10:52:57;100116.88;;;11.62;68.91
69402;BME280;56589;51.992;5.924;2024-03-25T10:55:27;100100.38;;;11.72;66.55
69402;BME280;56589;51.992;5.924;2024-03-25T10:57:55;100103.59;;;11.75;66.87
69402;BME280;56589;51.992;5.924;2024-03-25T11:00:22;100108.00;;;11.75;66.57
69402;BME280;56589;51.992;5.924;2024-03-25T11:02:50;100102.03;;;11.84;66.52
69402;BME280;56589;51.992;5.924;2024-03-25T11:05:17;100090.75;;;11.93;66.04
69402;BME280;56589;51.992;5.924;2024-03-25T11:07:45;100087.50;;;12.01;65.75
69402;BME280;56589;51.992;5.924;2024-03-25T11:10:12;100090.84;;;12.03;65.21
69402;BME280;56589;51.992;5.924;2024-03-25T11:12:41;100082.69;;;12.06;65.12
69402;BME280;56589;51.992;5.924;2024-03-25T11:15:08;100075.03;;;12.14;65.33
69402;BME280;56589;51.992;5.924;2024-03-25T11:17:35;100083.03;;;12.24;64.45
69402;BME280;56589;51.992;5.924;2024-03-25T11:20:09;100082.66;;;12.28;64.34
69402;BME280;56589;51.992;5.924;2024-03-25T11:22:36;100082.00;;;12.36;64.50
69402;BME280;56589;51.992;5.924;2024-03-25T11:25:13;100073.59;;;12.42;64.64
69402;BME280;56589;51.992;5.924;2024-03-25T11:27:43;100065.06;;;12.50;63.28
69402;BME280;56589;51.992;5.924;2024-03-25T11:30:10;100071.66;;;12.44;62.02
69402;BME280;56589;51.992;5.924;2024-03-25T11:32:49;100073.19;;;12.26;61.01
69402;BME280;56589;51.992;5.924;2024-03-25T11:35:17;100062.56;;;12.16;61.63
69402;BME280;56589;51.992;5.924;2024-03-25T11:37:46;100058.66;;;12.10;62.07
69402;BME280;56589;51.992;5.924;2024-03-25T11:40:13;100062.88;;;12.02;61.89
69402;BME280;56589;51.992;5.924;2024-03-25T11:42:43;100059.06;;;11.95;62.16
69402;BME280;56589;51.992;5.924;2024-03-25T11:45:15;100054.41;;;11.87;61.72
69402;BME280;56589;51.992;5.924;2024-03-25T11:47:42;100049.78;;;11.79;62.21
69402;BME280;56589;51.992;5.924;2024-03-25T11:50:11;100049.31;;;11.74;62.11
69402;BME280;56589;51.992;5.924;2024-03-25T11:52:39;100052.31;;;11.70;62.61
69402;BME280;56589;51.992;5.924;2024-03-25T11:55:05;100052.69;;;11.65;61.92
69402;BME280;56589;51.992;5.924;2024-03-25T11:57:32;100041.84;;;11.58;61.97
69402;BME280;56589;51.992;5.924;2024-03-25T12:00:01;100044.00;;;11.53;61.49
69402;BME280;56589;51.992;5.924;2024-03-25T12:02:27;100041.59;;;11.50;62.01
69402;BME280;56589;51.992;5.924;2024-03-25T12:04:53;100028.31;;;11.63;62.04
69402;BME280;56589;51.992;5.924;2024-03-25T12:07:19;100028.25;;;11.85;62.23
69402;BME280;56589;51.992;5.924;2024-03-25T12:09:45;100031.03;;;12.05;60.18
69402;BME280;56589;51.992;5.924;2024-03-25T12:12:11;100024.75;;;12.17;60.89
69402;BME280;56589;51.992;5.924;2024-03-25T12:14:36;100026.69;;;12.26;60.23
69402;BME280;56589;51.992;5.924;2024-03-25T12:17:05;100020.13;;;12.21;59.19
69402;BME280;56589;51.992;5.924;2024-03-25T12:19:31;100015.75;;;11.99;58.88
69402;BME280;56589;51.992;5.924;2024-03-25T12:21:59;100015.00;;;11.76;59.80
69402;BME280;56589;51.992;5.924;2024-03-25T12:24:26;100017.09;;;11.61;59.56
69402;BME280;56589;51.992;5.924;2024-03-25T12:26:53;100011.97;;;11.48;59.28
69402;BME280;56589;51.992;5.924;2024-03-25T12:29:21;100002.09;;;11.41;59.57
69402;BME280;56589;51.992;5.924;2024-03-25T12:31:54;99998.38;;;11.32;58.77
69402;BME280;56589;51.992;5.924;2024-03-25T12:34:22;99991.34;;;11.21;60.34
69402;BME280;56589;51.992;5.924;2024-03-25T12:37:00;99994.59;;;11.14;59.99
69402;BME280;56589;51.992;5.924;2024-03-25T12:39:26;99987.94;;;10.98;58.86
69402;BME280;56589;51.992;5.924;2024-03-25T12:41:52;99983.72;;;10.84;59.29
69402;BME280;56589;51.992;5.924;2024-03-25T12:44:18;99978.94;;;10.78;59.30
69402;BME280;56589;51.992;5.924;2024-03-25T12:46:47;99974.19;;;10.72;58.75
69402;BME280;56589;51.992;5.924;2024-03-25T12:49:13;99971.28;;;10.64;59.02
69402;BME280;56589;51.992;5.924;2024-03-25T12:51:41;99969.88;;;10.60;58.94
69402;BME280;56589;51.992;5.924;2024-03-25T12:54:07;99949.22;;;10.55;59.56
69402;BME280;56589;51.992;5.924;2024-03-25T12:56:33;99958.91;;;10.55;59.40